createdAt,value
2019-05-06T00:03:06.190Z,100485.61
2019-05-06T00:08:08.263Z,100482.78
2019-05-06T00:13:10.313Z,100488.58
2019-05-06T00:18:13.894Z,100487.06
2019-05-06T00:23:21.768Z,100480.63
2019-05-06T00:28:29.375Z,100484.04
2019-05-06T00:33:31.409Z,100478.45
2019-05-06T00:38:34.168Z,100483.41
2019-05-06T00:43:36.356Z,100486.36
2019-05-06T00:48:38.547Z,100481.47
2019-05-06T00:53:44.185Z,100479.05
2019-05-06T00:58:46.288Z,100481.55
2019-05-06T01:03:48.383Z,100489.03
2019-05-06T01:08:50.443Z,100487.11
2019-05-06T01:14:04.204Z,100491.72
2019-05-06T01:19:06.267Z,100489.89
2019-05-06T01:24:08.297Z,100500.34
2019-05-06T01:29:10.375Z,100495.20
2019-05-06T01:34:13.771Z,100499.56
2019-05-06T01:39:34.147Z,100506.59
2019-05-06T01:44:36.314Z,100506.34
2019-05-06T01:49:38.393Z,100512.80
2019-05-06T01:54:40.448Z,100512.70
2019-05-06T01:59:44.370Z,100518.40
2019-05-06T02:04:46.527Z,100517.94
2019-05-06T02:09:48.555Z,100524.61
2019-05-06T02:14:50.621Z,100532.70
2019-05-06T02:19:54.654Z,100532.00
2019-05-06T02:25:05.040Z,100534.84
2019-05-06T02:30:30.245Z,100540.48
2019-05-06T02:35:36.983Z,100546.94
2019-05-06T02:40:39.019Z,100549.31
2019-05-06T02:45:43.307Z,100556.83
2019-05-06T02:51:03.410Z,100553.66
2019-05-06T02:56:04.923Z,100552.72
2019-05-06T03:01:07.026Z,100555.27
2019-05-06T03:06:09.087Z,100561.91
2019-05-06T03:11:13.559Z,100559.78
2019-05-06T03:16:15.118Z,100561.22
2019-05-06T03:21:29.874Z,100566.91
2019-05-06T03:26:33.181Z,100565.23
2019-05-06T03:31:36.663Z,100567.62
2019-05-06T03:36:41.004Z,100564.77
2019-05-06T03:41:43.686Z,100573.89
2019-05-06T03:47:05.774Z,100574.45
2019-05-06T03:52:08.039Z,100582.27
2019-05-06T03:57:13.684Z,100586.64
2019-05-06T04:02:15.512Z,100591.38
2019-05-06T04:07:19.239Z,100598.14
2019-05-06T04:12:23.394Z,100592.31
2019-05-06T04:17:43.874Z,100593.62
2019-05-06T04:22:53.189Z,100597.78
2019-05-06T04:27:57.933Z,100603.47
2019-05-06T04:33:03.117Z,100608.33
2019-05-06T04:38:04.235Z,100611.30
2019-05-06T04:43:06.270Z,100618.30
2019-05-06T04:48:08.510Z,100617.27
2019-05-06T04:53:13.461Z,100624.64
2019-05-06T04:58:14.932Z,100623.48
2019-05-06T05:03:17.106Z,100629.22
2019-05-06T05:08:22.345Z,100631.18
2019-05-06T05:13:49.750Z,100630.64
2019-05-06T05:18:56.081Z,100626.35
2019-05-06T05:23:58.266Z,100634.54
2019-05-06T05:29:02.573Z,100635.70
2019-05-06T05:34:04.551Z,100637.05
2019-05-06T05:39:07.363Z,100635.16
2019-05-06T05:44:14.589Z,100643.20
2019-05-06T05:49:28.797Z,100643.56
2019-05-06T05:54:32.987Z,100651.45
2019-05-06T05:59:34.813Z,100651.23
2019-05-06T06:04:36.892Z,100651.48
2019-05-06T06:09:47.700Z,100655.38
2019-05-06T06:15:12.698Z,100652.80
2019-05-06T06:20:33.851Z,100647.30
2019-05-06T06:25:35.959Z,100652.01
2019-05-06T06:30:47.669Z,100650.67
2019-05-06T06:35:56.816Z,100651.53
2019-05-06T06:40:58.947Z,100655.09
2019-05-06T06:46:02.465Z,100664.09
2019-05-06T06:51:04.743Z,100663.92
2019-05-06T06:56:29.182Z,100655.16
2019-05-06T07:01:36.880Z,100650.56
2019-05-06T07:06:43.103Z,100647.22
2019-05-06T07:11:45.175Z,100633.02
2019-05-06T07:16:47.239Z,100643.69
2019-05-06T07:21:53.442Z,100648.14
2019-05-06T07:27:15.115Z,100627.88
2019-05-06T07:32:17.170Z,100619.92
2019-05-06T07:37:19.357Z,100623.45
2019-05-06T07:42:27.175Z,100624.41
2019-05-06T07:47:37.561Z,100617.17
2019-05-06T07:52:42.161Z,100620.94
2019-05-06T07:57:56.937Z,100624.61
2019-05-06T08:02:59.005Z,100625.09
2019-05-06T08:08:03.439Z,100621.38
2019-05-06T08:13:05.203Z,100628.25
2019-05-06T08:18:07.277Z,100631.23
2019-05-06T08:23:17.817Z,100627.07
2019-05-06T08:28:22.389Z,100626.82
2019-05-06T08:33:23.822Z,100628.75
2019-05-06T08:38:25.899Z,100625.23
2019-05-06T08:43:28.105Z,100615.03
2019-05-06T08:48:32.391Z,100615.77
2019-05-06T08:53:44.756Z,100616.28
2019-05-06T08:58:47.567Z,100610.98
2019-05-06T09:04:05.033Z,100614.89
2019-05-06T09:08:56.959Z,100607.59
2019-05-06T09:13:59.202Z,100607.72
2019-05-06T09:19:04.447Z,100604.88
2019-05-06T09:24:06.221Z,100603.58
2019-05-06T09:29:14.899Z,100591.89
2019-05-06T09:34:39.436Z,100598.69
2019-05-06T09:39:44.708Z,100590.30
2019-05-06T09:44:50.276Z,100595.03
2019-05-06T09:49:52.865Z,100599.89
2019-05-06T09:55:03.305Z,100595.19
2019-05-06T10:00:06.831Z,100600.77
2019-05-06T10:05:09.098Z,100603.58
2019-05-06T10:10:11.421Z,100599.59
2019-05-06T10:15:13.521Z,100610.59
2019-05-06T10:20:15.808Z,100604.11
2019-05-06T10:25:17.876Z,100607.83
2019-05-06T10:30:19.903Z,100607.97
2019-05-06T10:35:23.188Z,100612.52
2019-05-06T10:40:32.931Z,100609.55
2019-05-06T10:45:35.326Z,100618.23
2019-05-06T10:50:43.009Z,100609.31
2019-05-06T10:55:49.635Z,100599.98
2019-05-06T11:01:12.572Z,100602.04
2019-05-06T11:06:16.702Z,100597.22
2019-05-06T11:11:31.594Z,100589.89
2019-05-06T11:16:23.716Z,100589.69
2019-05-06T11:21:26.218Z,100597.14
2019-05-06T11:26:28.411Z,100580.66
2019-05-06T11:31:43.362Z,100582.98
2019-05-06T11:36:48.858Z,100572.28
2019-05-06T11:42:06.241Z,100570.11
2019-05-06T11:46:54.969Z,100563.59
2019-05-06T11:51:57.032Z,100565.91
2019-05-06T11:57:02.921Z,100568.45
2019-05-06T12:02:06.045Z,100563.70
2019-05-06T12:07:15.229Z,100549.34
2019-05-06T12:12:12.846Z,100551.00
2019-05-06T12:17:15.097Z,100555.47
2019-05-06T12:22:17.120Z,100558.30
2019-05-06T12:27:37.429Z,100555.64
2019-05-06T12:32:45.898Z,100548.71
2019-05-06T12:37:53.033Z,100551.17
2019-05-06T12:43:14.626Z,100561.89
2019-05-06T12:48:26.354Z,100553.45
2019-05-06T12:53:28.440Z,100547.18
2019-05-06T12:58:30.479Z,100548.50
2019-05-06T13:03:34.844Z,100551.33
2019-05-06T13:08:54.075Z,100554.48
2019-05-06T13:13:55.570Z,100550.84
2019-05-06T13:18:47.721Z,100551.14
2019-05-06T13:23:52.557Z,100558.27
2019-05-06T13:28:58.867Z,100559.06
2019-05-06T13:34:05.628Z,100546.95
2019-05-06T13:39:14.264Z,100542.13
2019-05-06T13:44:13.512Z,100539.61
2019-05-06T13:49:34.351Z,100537.92
2019-05-06T13:54:36.825Z,100533.15
2019-05-06T13:59:39.105Z,100524.69
2019-05-06T14:04:44.279Z,100521.75
2019-05-06T14:09:48.897Z,100519.14
2019-05-06T14:14:53.783Z,100521.73
2019-05-06T14:19:55.881Z,100522.27
2019-05-06T14:25:33.127Z,100516.33
2019-05-06T14:30:53.775Z,100516.34
2019-05-06T14:35:56.043Z,100522.07
2019-05-06T14:41:13.118Z,100522.27
2019-05-06T14:46:14.866Z,100528.88
2019-05-06T14:51:17.254Z,100529.08
2019-05-06T14:56:25.606Z,100527.43
2019-05-06T15:01:27.685Z,100530.55
2019-05-06T15:06:29.930Z,100532.43
2019-05-06T15:11:32.538Z,100530.78
2019-05-06T15:16:35.071Z,100531.41
2019-05-06T15:21:38.783Z,100527.91
2019-05-06T15:26:52.033Z,100530.19
2019-05-06T15:32:05.741Z,100527.34
2019-05-06T15:37:16.943Z,100524.52
2019-05-06T15:42:19.007Z,100536.17
2019-05-06T15:47:22.724Z,100530.43
2019-05-06T15:52:25.056Z,100533.84
2019-05-06T15:57:27.210Z,100535.37
2019-05-06T16:02:29.299Z,100528.78
2019-05-06T16:07:34.999Z,100530.92
2019-05-06T16:12:36.536Z,100527.95
2019-05-06T16:17:38.673Z,100519.38
2019-05-06T16:22:44.190Z,100525.60
2019-05-06T16:27:51.039Z,100523.72
2019-05-06T16:32:52.662Z,100521.10
2019-05-06T16:37:55.022Z,100520.58
2019-05-06T16:42:57.113Z,100517.61
2019-05-06T16:47:59.156Z,100516.28
2019-05-06T16:53:02.728Z,100518.73
2019-05-06T16:58:10.119Z,100504.55
2019-05-06T17:03:17.936Z,100511.23
2019-05-06T17:08:23.349Z,100516.92
2019-05-06T17:13:25.189Z,100515.83
2019-05-06T17:18:28.507Z,100517.48
2019-05-06T17:23:32.422Z,100516.12
2019-05-06T17:28:52.560Z,100517.52
2019-05-06T17:33:56.136Z,100515.91
2019-05-06T17:38:58.232Z,100525.89
2019-05-06T17:44:02.293Z,100517.45
2019-05-06T17:49:17.372Z,100525.37
2019-05-06T17:54:19.635Z,100524.91
2019-05-06T17:59:21.677Z,100526.97
2019-05-06T18:04:23.988Z,100529.23
2019-05-06T18:09:26.056Z,100523.47
2019-05-06T18:14:28.255Z,100527.98
2019-05-06T18:19:30.377Z,100538.28
2019-05-06T18:24:33.227Z,100538.47
2019-05-06T18:29:36.011Z,100543.45
2019-05-06T18:34:38.085Z,100552.46
2019-05-06T18:39:42.333Z,100545.05
2019-05-06T18:44:44.234Z,100544.53
2019-05-06T18:49:46.264Z,100555.05
2019-05-06T18:54:48.304Z,100553.48
2019-05-06T18:59:50.395Z,100563.05
2019-05-06T19:05:02.412Z,100566.91
2019-05-06T19:10:09.248Z,100580.56
2019-05-06T19:15:12.662Z,100588.64
2019-05-06T19:20:15.234Z,100592.53
2019-05-06T19:25:17.327Z,100597.11
2019-05-06T19:30:19.692Z,100599.17
2019-05-06T19:35:21.735Z,100606.78
2019-05-06T19:40:23.900Z,100605.28
2019-05-06T19:45:26.023Z,100608.04
2019-05-06T19:50:28.113Z,100605.70
2019-05-06T19:55:30.144Z,100608.11
2019-05-06T20:00:32.629Z,100617.25
2019-05-06T20:05:54.722Z,100611.59
2019-05-06T20:11:09.752Z,100609.59
2019-05-06T20:16:12.441Z,100609.87
2019-05-06T20:21:14.671Z,100607.14
2019-05-06T20:26:16.750Z,100620.22
2019-05-06T20:31:22.488Z,100615.37
2019-05-06T20:36:24.566Z,100622.77
2019-05-06T20:41:26.567Z,100611.42
2019-05-06T20:46:28.690Z,100613.98
2019-05-06T20:51:32.848Z,100611.63
2019-05-06T20:56:34.803Z,100604.66
2019-05-06T21:01:36.974Z,100596.16
2019-05-06T21:06:39.083Z,100596.91
2019-05-06T21:11:42.149Z,100600.63
2019-05-06T21:16:44.487Z,100592.05
2019-05-06T21:21:46.543Z,100595.29
2019-05-06T21:26:48.625Z,100598.23
2019-05-06T21:31:52.966Z,100596.53
2019-05-06T21:36:54.752Z,100598.97
2019-05-06T21:41:56.862Z,100595.85
2019-05-06T21:46:58.975Z,100600.38
2019-05-06T21:52:02.128Z,100601.42
2019-05-06T21:57:04.536Z,100601.64
2019-05-06T22:02:07.949Z,100598.62
2019-05-06T22:07:12.022Z,100593.94
2019-05-06T22:12:13.984Z,100595.90
2019-05-06T22:17:16.057Z,100587.59
2019-05-06T22:22:20.535Z,100586.11
2019-05-06T22:27:25.196Z,100591.52
2019-05-06T22:32:27.256Z,100584.39
2019-05-06T22:37:29.360Z,100587.03
2019-05-06T22:42:32.288Z,100581.61
2019-05-06T22:47:34.574Z,100586.95
2019-05-06T22:52:36.624Z,100583.54
2019-05-06T22:57:38.810Z,100584.61
2019-05-06T23:02:52.728Z,100580.09
2019-05-06T23:07:54.960Z,100577.27
2019-05-06T23:12:57.006Z,100565.40
2019-05-06T23:17:59.090Z,100562.30
2019-05-06T23:23:02.419Z,100566.02
2019-05-06T23:28:05.177Z,100559.70
2019-05-06T23:33:07.376Z,100562.23
2019-05-06T23:38:46.057Z,100564.98
2019-05-06T23:44:24.660Z,100561.28
2019-05-06T23:50:03.756Z,100561.78
2019-05-06T23:55:44.157Z,100557.62
